SBTE Airport Information

Runway Information
Runway 2 Length 7218 ft width 148 ft
Elevation 0 ft Threshold 0 ft Heading 0
Runway 20 Length 7218 ft Width 148 ft
Elevation 0 ft Threshold 0 ft Heading 0
Airport Frequencies
Type APP Name TERESINA A Frequency 119.6 MHZ
Type ATIS Name TERESINA A Frequency 127.8 MHZ
Type TWR Name TWR Frequency 118.8 MHZ
Airport Navaids
Type VOR-DME Name Teresina Frequency 112300 KHZ
Type NDB Name Teresina Frequency 215 KHZ
Airport Weather Information & NOTAM
ADDS - METARS form results

(0718 UTC 17 October 2018)
Data provider http://aviationweather.gov/metar/data/
 
Forecast for: SBTE (TERESINA AIRPORT, BR)
Text: TAF SBTE 170200Z 1706/1718 34006KT 9999 SCT015 TN25/1709Z TX35/1717Z
Forecast period: 0600 to 1800 UTC 17 October 2018
Forecast type: FROM: standard forecast or significant change
Winds: from the NNW (340 degrees) at 7 MPH (6 knots; 3.1 m/s)
Visibility: 6 or more miles 10+ km)
Ceiling: at least 12,000 feet AGL
Clouds: scattered clouds at 1500 feet AGL
Weather: no significant weather forecast for this period
Text: PROB30 1707/1710 BKN011 RMK PCN
Forecast period: 0700 to 1000 UTC 17 October 2018
Forecast type: PROBABLE: 30 percent likelihood of the following during this time
Visibility: missing
Ceiling: 1100 feet AGL
Clouds: broken clouds at 1100 feet AGL
Weather: no significant weather forecast for this period